createdAt,value
2019-02-08T00:01:38.301Z,95.60
2019-02-08T00:04:07.643Z,95.60
2019-02-08T00:06:36.945Z,95.60
2019-02-08T00:09:08.159Z,95.40
2019-02-08T00:11:38.922Z,95.40
2019-02-08T00:14:08.747Z,95.40
2019-02-08T00:16:38.057Z,95.40
2019-02-08T00:19:07.339Z,95.40
2019-02-08T00:21:36.640Z,95.30
2019-02-08T00:24:05.999Z,95.30
2019-02-08T00:26:35.311Z,95.40
2019-02-08T00:29:05.041Z,95.50
2019-02-08T00:31:34.399Z,95.50
2019-02-08T00:34:03.738Z,95.40
2019-02-08T00:36:33.034Z,95.40
2019-02-08T00:39:02.496Z,95.40
2019-02-08T00:41:33.399Z,95.40
2019-02-08T00:44:02.683Z,95.50
2019-02-08T00:46:33.155Z,95.60
2019-02-08T00:49:02.467Z,95.70
2019-02-08T00:51:31.759Z,95.80
2019-02-08T00:54:01.988Z,95.90
2019-02-08T00:56:31.288Z,95.90
2019-02-08T00:59:00.586Z,96.10
2019-02-08T01:01:30.052Z,96.00
2019-02-08T01:03:59.372Z,96.20
2019-02-08T01:06:28.695Z,96.20
2019-02-08T01:08:59.229Z,96.20
2019-02-08T01:11:28.505Z,96.10
2019-02-08T01:13:57.846Z,96.10
2019-02-08T01:16:27.619Z,96.10
2019-02-08T01:19:16.231Z,96.10
2019-02-08T01:21:45.523Z,96.00
2019-02-08T01:24:14.796Z,96.00
2019-02-08T01:26:44.104Z,96.10
2019-02-08T01:29:13.384Z,96.10
2019-02-08T01:31:42.678Z,96.10
2019-02-08T01:34:12.032Z,96.20
2019-02-08T01:36:41.321Z,96.20
2019-02-08T01:39:10.603Z,96.20
2019-02-08T01:41:39.894Z,96.20
2019-02-08T01:44:09.239Z,96.30
2019-02-08T01:46:38.531Z,96.40
2019-02-08T01:49:07.809Z,96.30
2019-02-08T01:51:37.125Z,96.30
2019-02-08T01:54:06.379Z,96.40
2019-02-08T01:56:35.668Z,96.40
2019-02-08T01:59:05.088Z,96.30
2019-02-08T02:01:34.378Z,96.40
2019-02-08T02:04:03.930Z,96.50
2019-02-08T02:06:33.220Z,96.40
2019-02-08T02:09:02.518Z,96.50
2019-02-08T02:11:33.444Z,96.60
2019-02-08T02:14:02.719Z,96.60
2019-02-08T02:16:32.013Z,96.70
2019-02-08T02:19:01.284Z,96.80
2019-02-08T02:21:30.567Z,96.80
2019-02-08T02:23:59.853Z,96.80
2019-02-08T02:26:30.064Z,96.70
2019-02-08T02:29:00.303Z,96.60
2019-02-08T02:31:29.602Z,96.60
2019-02-08T02:33:58.883Z,96.50
2019-02-08T02:36:28.172Z,96.30
2019-02-08T02:38:57.470Z,96.30
2019-02-08T02:41:27.703Z,96.50
2019-02-08T02:43:56.974Z,96.50
2019-02-08T02:46:26.275Z,96.60
2019-02-08T02:48:55.548Z,96.70
2019-02-08T02:51:24.857Z,96.80
2019-02-08T02:53:54.139Z,96.80
2019-02-08T02:56:23.423Z,96.80
2019-02-08T02:58:52.723Z,96.70
2019-02-08T03:01:21.992Z,96.60
2019-02-08T03:03:51.291Z,96.50
2019-02-08T03:06:20.604Z,96.60
2019-02-08T03:08:49.947Z,96.30
2019-02-08T03:11:19.244Z,96.10
2019-02-08T03:13:48.533Z,95.80
2019-02-08T03:16:17.815Z,95.60
2019-02-08T03:18:47.179Z,95.70
2019-02-08T03:21:16.462Z,95.90
2019-02-08T03:23:45.747Z,95.50
2019-02-08T03:26:15.015Z,95.40
2019-02-08T03:28:44.307Z,95.40
2019-02-08T03:31:13.592Z,95.50
2019-02-08T03:33:42.875Z,95.40
2019-02-08T03:36:12.233Z,95.40
2019-02-08T03:38:41.550Z,95.40
2019-02-08T03:41:10.890Z,95.50
2019-02-08T03:43:40.179Z,95.50
2019-02-08T03:46:09.539Z,95.60
2019-02-08T03:48:38.829Z,95.20
2019-02-08T03:51:08.123Z,95.10
2019-02-08T03:53:38.534Z,95.10
2019-02-08T03:56:07.817Z,95.10
2019-02-08T03:58:37.124Z,95.20
2019-02-08T04:01:09.307Z,95.30
2019-02-08T04:03:39.948Z,95.40
2019-02-08T04:06:09.223Z,95.30
2019-02-08T04:08:38.506Z,95.20
2019-02-08T04:11:07.872Z,95.20
2019-02-08T04:13:37.154Z,95.20
2019-02-08T04:16:06.426Z,95.20
2019-02-08T04:18:35.744Z,95.20
2019-02-08T04:21:04.999Z,95.30
2019-02-08T04:23:34.317Z,95.40
2019-02-08T04:26:03.593Z,95.40
2019-02-08T04:28:32.864Z,95.60
2019-02-08T04:31:02.147Z,95.70
2019-02-08T04:33:31.443Z,95.70
2019-02-08T04:36:00.717Z,95.80
2019-02-08T04:38:30.012Z,95.90
2019-02-08T04:40:59.289Z,96.00
2019-02-08T04:43:28.587Z,96.20
2019-02-08T04:46:10.256Z,96.20
2019-02-08T04:48:39.543Z,96.30
2019-02-08T04:51:08.827Z,96.30
2019-02-08T04:53:38.158Z,96.30
2019-02-08T04:56:07.438Z,96.40
2019-02-08T04:58:36.744Z,96.50
2019-02-08T05:01:06.026Z,96.60
2019-02-08T05:03:35.333Z,96.60
2019-02-08T05:06:04.762Z,96.60
2019-02-08T05:08:34.038Z,96.70
2019-02-08T05:11:03.327Z,96.80
2019-02-08T05:13:33.542Z,96.90
2019-02-08T05:16:02.824Z,97.00
2019-02-08T05:18:32.136Z,97.10
2019-02-08T05:21:01.411Z,97.20
2019-02-08T05:23:30.695Z,97.20
2019-02-08T05:25:59.981Z,97.20
2019-02-08T05:28:29.270Z,97.30
2019-02-08T05:30:58.554Z,97.40
2019-02-08T05:33:27.848Z,97.50
2019-02-08T05:35:57.150Z,97.70
2019-02-08T05:38:26.402Z,97.80
2019-02-08T05:40:55.699Z,97.90
2019-02-08T05:43:24.980Z,98.10
2019-02-08T05:45:54.295Z,98.30
2019-02-08T05:48:36.255Z,98.40
2019-02-08T05:51:05.559Z,98.60
2019-02-08T05:53:34.903Z,98.80
2019-02-08T05:56:04.621Z,99.40
2019-02-08T05:58:33.914Z,99.90
2019-02-08T06:01:03.262Z,99.90
2019-02-08T06:03:32.565Z,99.90
2019-02-08T06:06:01.854Z,99.90
2019-02-08T06:08:31.188Z,99.90
2019-02-08T06:11:00.492Z,99.90
2019-02-08T06:13:30.439Z,99.90
2019-02-08T06:15:59.737Z,99.90
2019-02-08T06:18:29.989Z,99.90
2019-02-08T06:20:59.422Z,99.90
2019-02-08T06:23:28.827Z,99.90
2019-02-08T06:25:59.349Z,99.90
2019-02-08T06:28:28.724Z,99.90
2019-02-08T06:31:00.580Z,99.90
2019-02-08T06:33:30.064Z,99.90
2019-02-08T06:36:01.806Z,99.50
2019-02-08T06:38:31.204Z,99.60
2019-02-08T06:41:02.006Z,99.60
2019-02-08T06:43:34.030Z,99.40
2019-02-08T06:46:05.024Z,99.30
2019-02-08T06:48:34.308Z,99.30
2019-02-08T06:51:04.580Z,99.20
2019-02-08T06:53:33.862Z,99.00
2019-02-08T06:56:03.150Z,99.00
2019-02-08T06:58:34.082Z,99.60
2019-02-08T07:01:07.884Z,99.80
2019-02-08T07:03:39.073Z,99.90
2019-02-08T07:06:21.824Z,99.90
2019-02-08T07:08:58.290Z,99.90
2019-02-08T07:11:47.280Z,99.90
2019-02-08T07:14:21.015Z,99.90
2019-02-08T07:16:57.844Z,99.90
2019-02-08T07:19:31.757Z,99.90
2019-02-08T07:22:05.565Z,99.90
2019-02-08T07:24:36.502Z,99.90
2019-02-08T07:30:18.711Z,99.90
2019-02-08T07:32:52.352Z,99.90
2019-02-08T07:35:40.195Z,99.90
2019-02-08T07:38:17.115Z,99.90
2019-02-08T07:40:50.666Z,99.90
2019-02-08T07:43:34.067Z,99.90
2019-02-08T07:46:15.758Z,99.90
2019-02-08T07:49:05.453Z,99.90
2019-02-08T07:51:42.048Z,99.90
2019-02-08T07:54:24.981Z,99.90
2019-02-08T07:57:05.614Z,99.90
2019-02-08T07:59:45.644Z,99.90
2019-02-08T08:02:19.387Z,99.80
2019-02-08T08:05:05.063Z,99.60
2019-02-08T08:07:35.983Z,99.40
2019-02-08T08:10:28.001Z,99.30
2019-02-08T08:13:01.351Z,99.30
2019-02-08T08:15:38.124Z,99.30
2019-02-08T08:18:11.909Z,99.60
2019-02-08T08:20:48.655Z,99.50
2019-02-08T08:23:26.760Z,99.70
2019-02-08T08:26:00.773Z,99.60
2019-02-08T08:28:31.949Z,99.80
2019-02-08T08:31:14.007Z,99.80
2019-02-08T08:33:52.013Z,99.80
2019-02-08T08:36:30.100Z,99.90
2019-02-08T08:39:08.324Z,99.80
2019-02-08T08:41:49.218Z,99.50
2019-02-08T08:44:30.614Z,99.40
2019-02-08T08:47:20.946Z,99.00
2019-02-08T08:50:13.869Z,98.60
2019-02-08T08:53:10.344Z,98.30
2019-02-08T08:56:15.915Z,97.90
2019-02-08T08:58:56.620Z,97.70
2019-02-08T09:01:31.544Z,98.10
2019-02-08T09:04:15.156Z,97.60
2019-02-08T09:07:16.446Z,97.60
2019-02-08T09:10:22.299Z,97.50
2019-02-08T09:13:18.285Z,97.40
2019-02-08T09:15:56.764Z,97.20
2019-02-08T09:18:35.087Z,96.90
2019-02-08T09:21:10.437Z,96.80
2019-02-08T09:24:09.896Z,96.00
2019-02-08T09:27:05.113Z,95.70
2019-02-08T09:30:03.558Z,95.90
2019-02-08T09:33:04.071Z,96.00
2019-02-08T09:35:51.221Z,96.00
2019-02-08T09:38:32.330Z,96.00
2019-02-08T09:41:21.106Z,95.60
2019-02-08T09:43:59.191Z,95.70
2019-02-08T09:46:47.151Z,95.80
2019-02-08T09:49:43.701Z,95.50
2019-02-08T09:52:25.283Z,95.50
2019-02-08T09:55:18.588Z,95.60
2019-02-08T09:57:56.595Z,95.30
2019-02-08T10:00:43.592Z,95.30
2019-02-08T10:03:18.732Z,95.00
2019-02-08T10:06:20.008Z,95.10
2019-02-08T10:09:28.407Z,94.80
2019-02-08T10:12:17.409Z,94.10
2019-02-08T10:15:13.498Z,93.00
2019-02-08T10:18:13.995Z,92.80
2019-02-08T10:20:49.081Z,91.90
2019-02-08T10:23:39.359Z,92.50
2019-02-08T10:26:38.222Z,92.80
2019-02-08T10:29:45.505Z,92.70
2019-02-08T10:32:46.353Z,93.40
2019-02-08T10:35:38.490Z,93.60
2019-02-08T10:38:38.019Z,93.90
2019-02-08T10:41:30.556Z,94.20
2019-02-08T10:44:47.600Z,95.00
2019-02-08T10:47:46.519Z,94.90
2019-02-08T10:50:33.748Z,95.20
2019-02-08T10:53:28.346Z,95.20
2019-02-08T10:56:04.471Z,95.00
2019-02-08T10:59:02.504Z,95.10
2019-02-08T11:01:56.671Z,94.90
2019-02-08T11:04:32.346Z,95.20
2019-02-08T11:07:10.607Z,95.30
2019-02-08T11:10:05.722Z,95.30
2019-02-08T11:13:12.249Z,95.40
2019-02-08T11:15:48.320Z,95.00
2019-02-08T11:18:40.170Z,94.40
2019-02-08T11:21:09.472Z,93.90
2019-02-08T11:23:38.766Z,93.80
2019-02-08T11:26:09.935Z,93.70
2019-02-08T11:28:41.326Z,93.40
2019-02-08T11:31:13.978Z,93.40
2019-02-08T11:33:43.252Z,93.20
2019-02-08T11:36:12.914Z,93.50
2019-02-08T11:38:42.190Z,93.60
2019-02-08T11:41:11.475Z,93.20
2019-02-08T11:43:40.761Z,93.20
2019-02-08T11:46:10.048Z,93.40
2019-02-08T11:48:39.327Z,92.90
2019-02-08T11:51:08.679Z,93.20
2019-02-08T11:53:39.250Z,92.70
2019-02-08T11:56:08.666Z,92.50
2019-02-08T11:58:39.492Z,92.70
2019-02-08T12:01:13.078Z,92.40
2019-02-08T12:03:43.979Z,92.90
2019-02-08T12:06:13.254Z,92.30
2019-02-08T12:08:43.516Z,92.50
2019-02-08T12:11:13.162Z,92.80
2019-02-08T12:13:42.792Z,92.70
2019-02-08T12:16:12.657Z,93.00
2019-02-08T12:18:42.608Z,92.70
2019-02-08T12:21:14.849Z,92.70
2019-02-08T12:23:45.771Z,92.50
2019-02-08T12:26:15.064Z,92.50
2019-02-08T12:28:47.374Z,92.40
2019-02-08T12:31:16.664Z,92.50
2019-02-08T12:33:45.952Z,92.40
2019-02-08T12:36:16.108Z,92.20
2019-02-08T12:38:45.454Z,92.10
2019-02-08T12:41:14.766Z,91.90
2019-02-08T12:43:44.034Z,91.60
2019-02-08T12:46:13.331Z,91.90
2019-02-08T12:48:42.621Z,92.20
2019-02-08T12:51:11.907Z,92.40
2019-02-08T12:53:41.356Z,92.10
2019-02-08T12:56:10.702Z,92.30
2019-02-08T12:58:39.991Z,92.30
2019-02-08T13:01:13.926Z,92.40
2019-02-08T13:03:43.201Z,92.50
2019-02-08T13:06:12.542Z,92.60
2019-02-08T13:08:41.822Z,92.70
2019-02-08T13:11:11.125Z,92.40
2019-02-08T13:13:40.435Z,92.30
2019-02-08T13:16:09.789Z,92.60
2019-02-08T13:18:40.024Z,92.60
2019-02-08T13:21:09.397Z,92.80
2019-02-08T13:23:38.664Z,93.30
2019-02-08T13:26:07.962Z,93.00
2019-02-08T13:28:37.246Z,92.90
2019-02-08T13:31:06.534Z,93.00
2019-02-08T13:33:37.418Z,93.20
2019-02-08T13:36:09.775Z,93.30
2019-02-08T13:38:39.057Z,93.30
2019-02-08T13:41:08.498Z,93.40
2019-02-08T13:43:37.771Z,93.40
2019-02-08T13:46:07.069Z,93.70
2019-02-08T13:48:36.341Z,93.60
2019-02-08T13:51:05.660Z,93.70
2019-02-08T13:53:34.946Z,93.90
2019-02-08T13:56:04.362Z,93.70
2019-02-08T13:58:33.711Z,93.70
2019-02-08T14:01:26.175Z,93.40
2019-02-08T14:04:05.644Z,93.70
2019-02-08T14:06:35.184Z,93.70
2019-02-08T14:09:06.763Z,93.70
2019-02-08T14:11:38.764Z,93.80
2019-02-08T14:14:08.035Z,93.60
2019-02-08T14:16:37.440Z,93.90
2019-02-08T14:19:19.861Z,93.90
2019-02-08T14:21:53.426Z,93.70
2019-02-08T14:24:24.692Z,93.90
2019-02-08T14:26:59.825Z,94.40
2019-02-08T14:29:29.091Z,94.40
2019-02-08T14:31:58.389Z,94.70
2019-02-08T14:34:31.323Z,94.70
2019-02-08T14:37:03.239Z,94.70
2019-02-08T14:39:32.530Z,94.60
2019-02-08T14:42:01.842Z,94.70
2019-02-08T14:44:31.896Z,94.80
2019-02-08T14:47:01.186Z,94.70
2019-02-08T14:49:30.476Z,94.60
2019-02-08T14:51:59.757Z,94.80
2019-02-08T14:54:29.076Z,94.50
2019-02-08T14:56:58.443Z,94.60
2019-02-08T14:59:27.824Z,94.60
2019-02-08T15:01:57.097Z,94.60
2019-02-08T15:04:26.388Z,94.40
2019-02-08T15:06:55.666Z,94.40
2019-02-08T15:09:25.055Z,94.50
2019-02-08T15:11:54.313Z,94.30
2019-02-08T15:14:23.645Z,94.30
2019-02-08T15:16:55.872Z,94.30
2019-02-08T15:19:26.697Z,94.30
2019-02-08T15:21:55.980Z,94.10
2019-02-08T15:24:26.336Z,94.20
2019-02-08T15:26:55.629Z,94.20
2019-02-08T15:29:24.923Z,94.20
2019-02-08T15:31:54.305Z,94.10
2019-02-08T15:34:46.770Z,94.10
2019-02-08T15:37:14.078Z,94.00
2019-02-08T15:39:47.034Z,93.90
2019-02-08T15:42:16.767Z,94.10
2019-02-08T15:44:46.363Z,93.90
2019-02-08T15:47:16.273Z,93.90
2019-02-08T15:49:47.696Z,93.80
2019-02-08T15:52:17.168Z,93.90
2019-02-08T15:54:49.997Z,93.90
2019-02-08T15:57:19.642Z,94.00
2019-02-08T15:59:48.924Z,94.00
2019-02-08T16:02:19.990Z,93.90
2019-02-08T16:04:49.375Z,94.30
2019-02-08T16:07:21.931Z,93.90
2019-02-08T16:09:51.415Z,94.20
2019-02-08T16:12:20.758Z,93.90
2019-02-08T16:14:51.950Z,93.90
2019-02-08T16:17:21.499Z,94.00
2019-02-08T16:19:51.276Z,94.00
2019-02-08T16:22:32.854Z,93.80
2019-02-08T16:25:02.631Z,93.90
2019-02-08T16:27:39.725Z,94.20
2019-02-08T16:30:26.563Z,93.80
2019-02-08T16:32:59.987Z,93.90
2019-02-08T16:35:29.944Z,93.80
2019-02-08T16:37:59.723Z,93.80
2019-02-08T16:40:29.883Z,93.80
2019-02-08T16:43:03.671Z,93.70
2019-02-08T16:45:38.263Z,93.80
2019-02-08T16:48:12.558Z,93.70
2019-02-08T16:50:42.601Z,93.70
2019-02-08T16:53:14.115Z,93.70
2019-02-08T16:55:43.447Z,93.60
2019-02-08T16:58:13.150Z,93.70
2019-02-08T17:00:42.937Z,93.70
2019-02-08T17:03:15.169Z,93.70
2019-02-08T17:05:44.782Z,93.70
2019-02-08T17:08:14.055Z,93.60
2019-02-08T17:10:45.195Z,93.60
2019-02-08T17:13:14.467Z,93.70
2019-02-08T17:15:43.847Z,93.70
2019-02-08T17:18:15.098Z,93.70
2019-02-08T17:20:47.296Z,93.70
2019-02-08T17:23:18.948Z,93.70
2019-02-08T17:25:48.227Z,93.50
2019-02-08T17:28:18.517Z,93.60
2019-02-08T17:30:47.835Z,93.40
2019-02-08T17:33:17.246Z,93.50
2019-02-08T17:35:49.116Z,93.20
2019-02-08T17:38:22.479Z,93.30
2019-02-08T17:40:51.048Z,93.30
2019-02-08T17:43:23.107Z,93.40
2019-02-08T17:45:52.367Z,93.20
2019-02-08T17:48:21.632Z,93.30
2019-02-08T17:50:50.958Z,93.20
2019-02-08T17:53:20.240Z,93.10
2019-02-08T17:55:49.527Z,93.10
2019-02-08T17:58:18.813Z,93.10
2019-02-08T18:00:50.967Z,93.00
2019-02-08T18:03:20.323Z,93.10
2019-02-08T18:05:49.612Z,93.10
2019-02-08T18:08:18.890Z,93.00
2019-02-08T18:10:48.177Z,93.20
2019-02-08T18:13:18.460Z,92.90
2019-02-08T18:15:48.017Z,92.90
2019-02-08T18:18:17.963Z,93.00
2019-02-08T18:20:58.777Z,93.00
2019-02-08T18:23:28.055Z,93.00
2019-02-08T18:25:57.387Z,93.00
2019-02-08T18:28:27.739Z,92.90
2019-02-08T18:30:57.039Z,92.90
2019-02-08T18:33:26.329Z,92.90
2019-02-08T18:35:55.682Z,92.90
2019-02-08T18:38:26.524Z,92.90
2019-02-08T18:40:55.820Z,92.90
2019-02-08T18:43:25.111Z,93.00
2019-02-08T18:45:55.291Z,93.00
2019-02-08T18:48:24.582Z,92.90
2019-02-08T18:50:55.004Z,92.80
2019-02-08T18:53:25.272Z,92.80
2019-02-08T18:55:54.571Z,92.60
2019-02-08T18:58:26.523Z,92.70
2019-02-08T19:00:55.846Z,92.80
2019-02-08T19:03:25.313Z,92.60
2019-02-08T19:05:57.758Z,92.60
2019-02-08T19:08:30.796Z,92.60
2019-02-08T19:11:00.080Z,92.60
2019-02-08T19:13:29.400Z,92.70
2019-02-08T19:16:00.414Z,92.60
2019-02-08T19:18:33.053Z,92.70
2019-02-08T19:21:02.383Z,92.70
2019-02-08T19:23:31.687Z,92.50
2019-02-08T19:26:01.018Z,92.50
2019-02-08T19:28:30.306Z,92.50
2019-02-08T19:31:01.223Z,92.50
2019-02-08T19:33:30.575Z,92.50
2019-02-08T19:36:02.303Z,92.60
2019-02-08T19:38:31.579Z,92.60
2019-02-08T19:41:00.848Z,92.40
2019-02-08T19:43:30.189Z,92.50
2019-02-08T19:45:59.491Z,92.50
2019-02-08T19:48:28.784Z,92.50
2019-02-08T19:50:58.080Z,92.50
2019-02-08T19:53:27.382Z,92.30
2019-02-08T19:55:58.196Z,92.30
2019-02-08T19:58:34.323Z,92.30
2019-02-08T20:01:00.082Z,92.30
2019-02-08T20:03:29.372Z,92.30
2019-02-08T20:05:58.717Z,92.30
2019-02-08T20:08:28.043Z,92.40
2019-02-08T20:10:57.329Z,92.40
2019-02-08T20:13:26.630Z,92.30
2019-02-08T20:15:56.001Z,92.30
2019-02-08T20:18:25.294Z,92.30
2019-02-08T20:20:54.748Z,92.10
2019-02-08T20:23:24.023Z,92.10
2019-02-08T20:25:56.890Z,92.20
2019-02-08T20:28:26.181Z,91.90
2019-02-08T20:30:55.455Z,92.20
2019-02-08T20:33:24.743Z,92.20
2019-02-08T20:35:54.068Z,92.20
2019-02-08T20:38:24.350Z,92.10
2019-02-08T20:40:53.662Z,92.20
2019-02-08T20:43:22.933Z,92.20
2019-02-08T20:45:52.227Z,92.20
2019-02-08T20:48:23.264Z,92.40
2019-02-08T20:50:52.636Z,92.20
2019-02-08T20:53:23.084Z,92.20
2019-02-08T20:55:53.036Z,92.20
2019-02-08T20:58:22.595Z,92.30
2019-02-08T21:00:52.719Z,92.60
2019-02-08T21:03:24.561Z,92.30
2019-02-08T21:05:55.483Z,92.20
2019-02-08T21:08:27.686Z,92.20
2019-02-08T21:10:56.956Z,92.10
2019-02-08T21:13:26.256Z,92.10
2019-02-08T21:15:55.621Z,92.10
2019-02-08T21:18:24.894Z,92.30
2019-02-08T21:20:54.209Z,92.20
2019-02-08T21:23:23.487Z,92.30
2019-02-08T21:25:52.787Z,92.20
2019-02-08T21:28:22.106Z,92.20
2019-02-08T21:30:51.423Z,92.10
2019-02-08T21:33:20.707Z,92.10
2019-02-08T21:35:52.783Z,92.20
2019-02-08T21:38:24.123Z,92.30
2019-02-08T21:40:53.411Z,92.20
2019-02-08T21:43:28.720Z,92.10
2019-02-08T21:45:58.789Z,92.10
2019-02-08T21:48:29.030Z,92.10
2019-02-08T21:50:59.901Z,92.10
2019-02-08T21:53:29.249Z,92.00
2019-02-08T21:55:58.533Z,91.90
2019-02-08T21:58:29.763Z,92.00
2019-02-08T22:01:00.676Z,92.00
2019-02-08T22:03:30.733Z,92.00
2019-02-08T22:06:00.659Z,92.00
2019-02-08T22:08:30.012Z,92.10
2019-02-08T22:10:59.304Z,92.10
2019-02-08T22:13:28.642Z,91.90
2019-02-08T22:15:57.931Z,91.80
2019-02-08T22:18:27.223Z,91.70
2019-02-08T22:20:56.806Z,91.60
2019-02-08T22:23:26.252Z,91.60
2019-02-08T22:25:55.682Z,91.70
2019-02-08T22:28:25.104Z,91.60
2019-02-08T22:30:54.448Z,91.60
2019-02-08T22:33:23.804Z,91.60
2019-02-08T22:35:54.723Z,91.60
2019-02-08T22:38:24.011Z,91.70
2019-02-08T22:40:54.308Z,91.60
2019-02-08T22:43:25.289Z,91.60
2019-02-08T22:45:54.738Z,91.60
2019-02-08T22:48:24.328Z,91.50
2019-02-08T22:50:55.319Z,91.70
2019-02-08T22:53:24.596Z,91.60
2019-02-08T22:55:53.903Z,91.60
2019-02-08T22:58:24.130Z,91.60
2019-02-08T23:00:57.159Z,91.60
2019-02-08T23:03:27.967Z,91.70
2019-02-08T23:05:57.274Z,91.80
2019-02-08T23:08:26.623Z,91.60
2019-02-08T23:10:56.384Z,91.50
2019-02-08T23:13:25.762Z,91.50
2019-02-08T23:15:55.442Z,91.60
2019-02-08T23:18:24.756Z,91.50
2019-02-08T23:20:54.043Z,91.30
2019-02-08T23:23:23.315Z,91.40
2019-02-08T23:25:54.152Z,91.40
2019-02-08T23:28:23.435Z,91.20
2019-02-08T23:30:52.714Z,91.30
2019-02-08T23:33:26.034Z,91.40
2019-02-08T23:35:55.328Z,91.50
2019-02-08T23:38:24.614Z,91.40
2019-02-08T23:40:53.908Z,91.30
2019-02-08T23:43:23.198Z,91.70
2019-02-08T23:45:52.471Z,91.40
2019-02-08T23:48:21.756Z,91.70
2019-02-08T23:50:51.042Z,92.30
2019-02-08T23:53:20.357Z,92.60
2019-02-08T23:55:49.637Z,92.70
2019-02-08T23:58:18.916Z,93.20
